Time;durP1;ratioP1;P1;durP2;ratioP2;P2;SDS_P1;SDS_P2;PMS_P1;PMS_P2;Temp;Humidity;BMP_temperature;BMP_pressure;BME280_temperature;BME280_humidity;BME280_pressure;Samples;Min_cycle;Max_cycle;Signal;HPM_P1;HPM_P2
2023/07/12 00:00:59;;;;;;;;;6.00;5.00;;;;;22.99;70.27;100530.63;5001310;28;45357;-90
2023/07/12 00:03:25;;;;;;;;;4.00;4.00;;;;;22.97;70.77;100528.91;4999508;28;47977;-91
2023/07/12 00:05:52;;;;;;;;;5.33;4.67;;;;;22.93;70.94;100527.22;5000638;28;45261;-92
2023/07/12 00:08:25;;;;;;;;;4.00;4.00;;;;;22.92;70.60;100533.47;4999246;28;45393;-91
2023/07/12 00:10:53;;;;;;;;;4.00;4.00;;;;;22.81;71.00;100520.38;4999620;28;45249;-92
2023/07/12 00:13:19;;;;;;;;;4.67;4.67;;;;;22.75;70.60;100508.06;4999264;28;45542;-90
2023/07/12 00:15:46;;;;;;;;;5.67;5.00;;;;;22.73;70.42;100509.00;5000327;28;45432;-91
2023/07/12 00:18:17;;;;;;;;;4.00;4.00;;;;;22.69;70.97;100518.84;5001044;28;45783;-92
2023/07/12 00:20:43;;;;;;;;;3.67;3.00;;;;;22.67;70.88;100520.66;5001289;28;45576;-92
2023/07/12 00:23:14;;;;;;;;;5.00;4.00;;;;;22.54;70.74;100498.75;5000240;28;45656;-92
2023/07/12 00:25:42;;;;;;;;;4.00;3.33;;;;;22.54;70.99;100513.81;5000389;28;45456;-92
2023/07/12 00:28:28;;;;;;;;;5.00;4.67;;;;;22.55;70.81;100510.25;5000463;28;45300;-92
2023/07/12 00:30:56;;;;;;;;;7.00;6.00;;;;;22.49;70.92;100495.28;5000202;28;45617;-91
2023/07/12 00:33:23;;;;;;;;;6.33;6.00;;;;;22.46;71.82;100511.31;4999157;28;45483;-92
2023/07/12 00:35:50;;;;;;;;;5.00;5.00;;;;;22.32;71.85;100498.28;4999472;28;45431;-91
2023/07/12 00:38:18;;;;;;;;;8.00;4.67;;;;;22.31;72.01;100506.31;5001822;28;45503;-92
2023/07/12 00:40:50;;;;;;;;;4.67;4.00;;;;;22.43;72.05;100525.56;5001519;28;45447;-92
2023/07/12 00:43:35;;;;;;;;;5.00;5.00;;;;;22.40;72.06;100501.69;4999239;28;46202;-92
2023/07/12 00:46:04;;;;;;;;;6.67;6.00;;;;;22.42;71.98;100510.50;5000297;28;45332;-92
2023/07/12 00:48:30;;;;;;;;;7.67;6.00;;;;;22.49;71.25;100513.06;5000824;28;45295;-92
2023/07/12 00:50:56;;;;;;;;;6.00;5.67;;;;;22.43;71.85;100490.97;4999837;28;45479;-91
2023/07/12 00:53:23;;;;;;;;;4.33;4.33;;;;;22.53;71.20;100504.09;5000380;28;46036;-92
2023/07/12 00:56:10;;;;;;;;;4.00;3.33;;;;;22.47;70.98;100506.88;4999454;28;45754;-89
2023/07/12 00:58:42;;;;;;;;;3.33;3.33;;;;;22.44;71.20;100507.78;5001024;28;45349;-92
2023/07/12 01:01:09;;;;;;;;;4.00;4.00;;;;;22.41;71.53;100503.41;5001713;28;45909;-86
2023/07/12 01:03:37;;;;;;;;;4.00;3.33;;;;;22.33;71.61;100489.38;5000624;28;45571;-90
2023/07/12 01:06:06;;;;;;;;;6.67;5.00;;;;;22.49;71.22;100500.63;4998937;28;45360;-92
2023/07/12 01:08:33;;;;;;;;;4.67;4.33;;;;;22.44;71.21;100492.72;5000009;28;45526;-90
2023/07/12 01:11:02;;;;;;;;;3.00;3.00;;;;;22.36;71.07;100473.38;4998673;28;45326;-86
2023/07/12 01:13:30;;;;;;;;;4.67;4.00;;;;;22.41;70.53;100491.91;4999499;28;45424;-93
2023/07/12 01:15:59;;;;;;;;;3.67;3.67;;;;;22.28;71.36;100479.72;4998348;28;45254;-90
2023/07/12 01:18:25;;;;;;;;;5.67;5.00;;;;;22.24;71.53;100468.25;5000059;28;45186;-93
2023/07/12 01:21:12;;;;;;;;;5.67;4.00;;;;;22.29;71.42;100484.16;4999840;28;45304;-92
2023/07/12 01:23:40;;;;;;;;;4.00;4.00;;;;;22.22;71.39;100483.34;4998354;28;47042;-92
2023/07/12 01:26:33;;;;;;;;;5.33;4.33;;;;;22.07;71.15;100471.22;4999262;28;45336;-92
2023/07/12 01:29:01;;;;;;;;;3.00;3.00;;;;;22.15;71.14;100479.94;4999017;28;45456;-93
2023/07/12 01:31:28;;;;;;;;;6.00;5.00;;;;;22.06;70.95;100469.47;5000292;28;45290;-93
2023/07/12 01:33:54;;;;;;;;;5.00;4.00;;;;;22.04;71.15;100468.63;4998159;28;45371;-93
2023/07/12 01:36:21;;;;;;;;;5.00;4.00;;;;;22.01;71.79;100466.03;4999389;28;45209;-92
2023/07/12 01:38:49;;;;;;;;;5.67;5.00;;;;;21.92;72.35;100456.41;4998682;28;45323;-93
2023/07/12 01:41:15;;;;;;;;;4.67;4.67;;;;;21.84;72.41;100456.59;4999702;28;45254;-93
2023/07/12 01:43:41;;;;;;;;;4.33;4.33;;;;;21.69;72.73;100442.69;4997941;28;47705;-93
2023/07/12 01:46:06;;;;;;;;;8.67;4.67;;;;;21.76;72.67;100461.13;4998851;28;45485;-89
2023/07/12 01:48:32;;;;;;;;;4.33;4.00;;;;;21.82;72.05;100465.47;4998986;28;45504;-93
2023/07/12 01:50:59;;;;;;;;;3.33;3.00;;;;;21.69;72.09;100461.28;4998099;28;45510;-93
2023/07/12 01:53:25;;;;;;;;;4.00;4.00;;;;;21.53;72.89;100452.69;4997462;28;46264;-93
2023/07/12 01:55:51;;;;;;;;;6.00;5.00;;;;;21.13;72.60;100395.72;4999000;28;45285;-93
2023/07/12 01:58:16;;;;;;;;;5.00;4.00;;;;;21.49;73.05;100459.84;4998097;28;45572;-93
2023/07/12 02:00:42;;;;;;;;;6.33;4.67;;;;;21.32;73.05;100429.97;4999413;28;45368;-93
2023/07/12 02:03:07;;;;;;;;;6.00;5.00;;;;;21.43;72.55;100451.97;4997834;28;45627;-91
2023/07/12 02:05:33;;;;;;;;;4.33;4.33;;;;;21.48;73.23;100460.72;4999049;28;45472;-93
2023/07/12 02:07:59;;;;;;;;;5.00;5.00;;;;;21.38;73.12;100451.13;4997721;28;45586;-93
2023/07/12 02:10:25;;;;;;;;;5.00;5.00;;;;;21.26;72.73;100447.75;4997891;28;45531;-93
2023/07/12 02:12:51;;;;;;;;;4.00;4.00;;;;;21.39;72.58;100461.72;4998835;28;45992;-93
2023/07/12 02:15:17;;;;;;;;;4.00;4.00;;;;;21.30;73.55;100459.19;4997756;28;45354;-93
2023/07/12 02:17:43;;;;;;;;;7.67;6.00;;;;;21.22;73.35;100456.66;4998842;28;45446;-93
2023/07/12 02:20:10;;;;;;;;;6.00;6.00;;;;;21.27;73.52;100461.94;4998899;28;45281;-93
2023/07/12 02:22:38;;;;;;;;;4.00;4.00;;;;;21.28;73.60;100458.34;4998829;28;46218;-93
2023/07/12 02:25:04;;;;;;;;;5.67;5.00;;;;;21.17;73.23;100442.59;4998830;28;45448;-93
2023/07/12 02:27:31;;;;;;;;;8.33;5.00;;;;;21.05;73.24;100441.00;4997458;28;45452;-93
2023/07/12 02:29:57;;;;;;;;;5.67;5.00;;;;;21.09;73.20;100452.47;4997389;28;45615;-92
2023/07/12 02:32:23;;;;;;;;;5.00;5.00;;;;;21.17;73.00;100462.94;4997523;28;47207;-93
2023/07/12 02:34:49;;;;;;;;;5.67;5.33;;;;;21.09;73.47;100449.81;4998548;28;45487;-93
2023/07/12 02:37:18;;;;;;;;;5.00;4.00;;;;;21.01;73.14;100459.66;4998330;28;45230;-92
2023/07/12 02:39:45;;;;;;;;;6.33;5.33;;;;;21.02;72.70;100456.97;4997434;28;45583;-93
2023/07/12 02:42:11;;;;;;;;;4.33;4.33;;;;;20.97;72.89;100460.56;4998416;28;46054;-93
2023/07/12 02:44:40;;;;;;;;;6.33;4.67;;;;;20.97;73.41;100464.13;4996960;28;45437;-93
2023/07/12 02:47:10;;;;;;;;;4.67;3.00;;;;;20.93;73.44;100464.19;4997130;28;45326;-93
2023/07/12 02:49:36;;;;;;;;;7.00;5.00;;;;;20.86;73.30;100461.59;4998702;28;45292;-93
2023/07/12 02:52:04;;;;;;;;;7.33;5.67;;;;;20.97;73.72;100471.19;4997955;28;46006;-93
2023/07/12 02:54:31;;;;;;;;;4.33;4.33;;;;;21.01;73.62;100470.28;4996999;28;45369;-93
2023/07/12 02:56:57;;;;;;;;;5.67;5.00;;;;;20.91;73.92;100458.91;4998306;28;45563;-92
2023/07/12 02:59:23;;;;;;;;;6.67;4.67;;;;;21.06;74.09;100466.63;4998348;28;45494;-92
2023/07/12 03:01:48;;;;;;;;;5.00;4.00;;;;;20.91;73.48;100439.41;4998021;28;45376;-93
2023/07/12 03:04:14;;;;;;;;;5.00;5.00;;;;;21.06;74.02;100468.44;4998206;28;45387;-94
2023/07/12 03:06:39;;;;;;;;;5.67;5.33;;;;;21.00;74.27;100457.88;4997406;28;46106;-93
2023/07/12 03:09:06;;;;;;;;;5.00;4.00;;;;;21.13;73.66;100464.78;4998396;28;45383;-93
2023/07/12 03:11:32;;;;;;;;;4.00;4.00;;;;;21.13;73.47;100464.78;4998081;28;45344;-92
2023/07/12 03:13:58;;;;;;;;;4.67;4.00;;;;;21.19;73.37;100475.31;4999568;28;45394;-92
2023/07/12 03:16:23;;;;;;;;;4.00;4.00;;;;;21.16;73.40;100458.53;5001080;28;45337;-93
2023/07/12 03:18:50;;;;;;;;;5.00;5.00;;;;;21.09;73.69;100447.16;5002025;28;45408;-93
2023/07/12 03:21:15;;;;;;;;;3.33;3.33;;;;;21.23;72.93;100457.56;5002242;28;46312;-92
2023/07/12 03:23:41;;;;;;;;;4.67;4.67;;;;;21.28;73.08;100462.78;5007025;28;45490;-92
2023/07/12 03:26:07;;;;;;;;;3.67;3.00;;;;;21.16;73.09;100443.47;5007340;28;45320;-89
2023/07/12 03:28:32;;;;;;;;;5.33;4.33;;;;;21.34;72.82;100468.00;5006334;28;45405;-93
2023/07/12 03:31:07;;;;;;;;;3.00;3.00;;;;;21.30;72.13;100463.66;5005119;28;46578;-91
2023/07/12 03:33:33;;;;;;;;;2.33;2.33;;;;;21.22;72.75;100454.00;5006688;28;45296;-92
2023/07/12 03:36:00;;;;;;;;;4.00;4.00;;;;;21.39;72.60;100468.84;5007299;28;45280;-90
2023/07/12 03:38:26;;;;;;;;;5.33;5.00;;;;;21.25;72.56;100453.09;5010583;28;45302;-93
2023/07/12 03:40:57;;;;;;;;;4.00;4.00;;;;;21.38;72.67;100453.78;5011406;28;46377;-88
2023/07/12 03:43:23;;;;;;;;;5.33;4.67;;;;;21.32;72.16;100437.94;5010825;28;45574;-92
2023/07/12 03:45:49;;;;;;;;;5.00;5.00;;;;;20.99;72.09;100371.13;5013768;28;45284;-92
2023/07/12 03:48:15;;;;;;;;;7.67;5.00;;;;;21.37;72.07;100430.78;5014565;28;45368;-92
2023/07/12 03:50:41;;;;;;;;;4.67;4.67;;;;;21.34;72.58;100417.53;5009423;28;47042;-93
2023/07/12 03:53:07;;;;;;;;;4.00;4.00;;;;;21.37;72.10;100429.00;5002631;28;45394;-91
2023/07/12 03:55:38;;;;;;;;;5.33;5.00;;;;;21.40;72.32;100433.38;5002271;28;45476;-93
2023/07/12 03:58:04;;;;;;;;;4.00;4.00;;;;;21.31;72.39;100428.19;5001061;28;45321;-93
2023/07/12 04:00:30;;;;;;;;;5.67;5.00;;;;;21.24;72.73;100441.56;5000098;28;46526;-92
2023/07/12 04:02:56;;;;;;;;;7.67;5.67;;;;;21.13;73.31;100451.50;5000346;28;45471;-93
2023/07/12 04:05:22;;;;;;;;;5.33;4.67;;;;;21.24;73.23;100473.47;5001484;28;45479;-93
2023/07/12 04:07:47;;;;;;;;;6.00;5.00;;;;;21.09;72.92;100444.50;5000132;28;45504;-92
2023/07/12 04:10:13;;;;;;;;;4.00;4.00;;;;;21.33;72.72;100487.50;4999690;28;47917;-93
2023/07/12 04:12:39;;;;;;;;;5.00;4.00;;;;;21.34;72.31;100499.91;5000808;28;45515;-93
2023/07/12 04:15:06;;;;;;;;;3.00;3.00;;;;;21.32;72.49;100480.44;5001376;28;45471;-93
2023/07/12 04:17:31;;;;;;;;;6.00;4.00;;;;;21.23;72.02;100453.13;5000989;28;45411;-92
2023/07/12 04:19:58;;;;;;;;;5.00;3.67;;;;;21.14;72.47;100445.28;5000970;28;45321;-93
2023/07/12 04:22:25;;;;;;;;;4.00;4.00;;;;;21.14;72.98;100442.63;5000963;28;45344;-93
2023/07/12 04:24:53;;;;;;;;;4.00;4.00;;;;;21.05;72.42;100424.19;4998368;28;45458;-93
2023/07/12 04:27:19;;;;;;;;;4.00;4.00;;;;;21.14;72.83;100450.59;5001368;28;45360;-92
2023/07/12 04:29:45;;;;;;;;;4.67;4.67;;;;;21.11;72.93;100453.31;4999327;28;45517;-93
2023/07/12 04:32:11;;;;;;;;;3.67;3.67;;;;;20.98;72.89;100423.38;5000417;28;45338;-92
2023/07/12 04:34:36;;;;;;;;;4.33;4.00;;;;;21.15;72.62;100447.06;5000327;28;45508;-93
2023/07/12 04:37:02;;;;;;;;;4.00;4.00;;;;;21.11;72.50;100436.47;4999572;28;45320;-91
2023/07/12 04:39:28;;;;;;;;;3.67;3.67;;;;;21.08;72.61;100444.50;5000734;28;46205;-94
2023/07/12 04:41:54;;;;;;;;;3.67;3.00;;;;;21.06;72.90;100449.84;5000568;28;45320;-86
2023/07/12 04:44:19;;;;;;;;;8.00;7.00;;;;;21.00;73.08;100434.84;4999410;28;45698;-93
2023/07/12 04:46:44;;;;;;;;;5.67;5.00;;;;;21.01;72.94;100433.97;5000245;28;45701;-92
2023/07/12 04:49:10;;;;;;;;;4.00;4.00;;;;;21.15;72.72;100441.75;5005520;28;45987;-93
2023/07/12 04:51:35;;;;;;;;;4.00;3.67;;;;;21.19;72.51;100437.25;5006200;28;45334;-93
2023/07/12 04:54:01;;;;;;;;;4.33;4.33;;;;;21.24;72.05;100446.88;5002203;28;45271;-78
2023/07/12 04:56:26;;;;;;;;;5.00;4.33;;;;;21.28;71.72;100450.38;5000145;28;45247;-93
2023/07/12 04:58:53;;;;;;;;;3.67;3.00;;;;;21.24;71.83;100456.66;4999622;28;45233;-93
2023/07/12 05:01:19;;;;;;;;;4.00;3.33;;;;;21.26;71.59;100465.47;4998820;28;45491;-94
2023/07/12 05:03:46;;;;;;;;;4.67;4.00;;;;;21.34;71.95;100468.88;4999942;28;45486;-91
2023/07/12 05:06:12;;;;;;;;;4.00;3.33;;;;;21.32;71.62;100443.25;5000094;28;45319;-90
2023/07/12 05:08:37;;;;;;;;;5.00;3.67;;;;;21.35;71.86;100432.59;4999441;28;45363;-93
2023/07/12 05:11:03;;;;;;;;;5.00;5.00;;;;;21.59;71.46;100463.22;5005117;28;45237;-88
2023/07/12 05:13:29;;;;;;;;;5.00;4.00;;;;;21.61;70.74;100445.47;5011136;28;45536;-93
2023/07/12 05:15:56;;;;;;;;;4.00;3.33;;;;;21.67;70.71;100444.50;5009081;28;45348;-90
2023/07/12 05:18:24;;;;;;;;;3.33;3.33;;;;;21.82;70.38;100458.34;5005962;28;45507;-93
2023/07/12 05:20:52;;;;;;;;;3.33;2.00;;;;;21.90;70.20;100465.34;5008055;28;45475;-93
2023/07/12 05:23:19;;;;;;;;;3.00;3.00;;;;;21.89;69.99;100445.84;5008984;28;45297;-82
2023/07/12 05:25:53;;;;;;;;;2.00;2.00;;;;;22.03;69.17;100465.09;5008019;28;45585;-77
2023/07/12 05:28:19;;;;;;;;;4.00;3.00;;;;;21.93;68.82;100444.03;5008716;28;46719;-86
2023/07/12 05:30:45;;;;;;;;;4.33;4.33;;;;;22.12;68.99;100465.81;5009379;28;45521;-89
2023/07/12 05:33:10;;;;;;;;;4.00;4.00;;;;;22.14;68.77;100462.22;5005459;28;45478;-79
2023/07/12 05:35:36;;;;;;;;;4.00;4.00;;;;;22.14;68.72;100466.66;5009104;28;45526;-84
2023/07/12 05:38:03;;;;;;;;;6.33;4.00;;;;;22.01;68.62;100453.59;5007733;28;45277;-88
2023/07/12 05:40:29;;;;;;;;;6.67;5.00;;;;;21.99;68.53;100466.06;5008353;28;45626;-93
2023/07/12 05:42:56;;;;;;;;;4.33;4.00;;;;;21.85;69.11;100452.13;5008423;28;45682;-93
2023/07/12 05:45:22;;;;;;;;;6.00;4.00;;;;;21.96;68.91;100470.53;5008441;28;45463;-93
2023/07/12 05:47:47;;;;;;;;;4.00;4.00;;;;;21.95;69.12;100472.34;5008073;28;45670;-87
2023/07/12 05:50:16;;;;;;;;;5.00;4.00;;;;;21.99;69.23;100466.06;5007520;28;45528;-91
2023/07/12 05:52:42;;;;;;;;;5.00;4.00;;;;;22.31;69.47;100477.03;5007605;28;45411;-86
2023/07/12 05:55:11;;;;;;;;;6.33;5.00;;;;;22.67;67.24;100454.09;5007803;28;45679;-92
2023/07/12 05:57:38;;;;;;;;;4.00;3.33;;;;;22.99;67.16;100469.34;5004091;28;46437;-80
2023/07/12 06:00:08;;;;;;;;;2.33;2.33;;;;;23.33;66.13;100473.94;5004923;28;45612;-77
2023/07/12 06:02:33;;;;;;;;;2.33;2.00;;;;;23.45;65.24;100470.09;5009045;28;45314;-77
2023/07/12 06:05:00;;;;;;;;;3.33;3.00;;;;;23.66;64.53;100470.50;5009676;28;45513;-85
2023/07/12 06:07:26;;;;;;;;;2.67;2.67;;;;;24.08;63.90;100479.19;5009765;28;45522;-85
2023/07/12 06:09:51;;;;;;;;;3.00;2.33;;;;;25.30;61.24;100465.00;5007579;28;45459;-90
2023/07/12 06:12:17;;;;;;;;;3.33;3.33;;;;;27.44;55.00;100450.06;5007165;28;45507;-77
2023/07/12 06:14:43;;;;;;;;;2.00;2.00;;;;;29.14;51.28;100449.63;5009626;28;45352;-86
2023/07/12 06:17:08;;;;;;;;;3.00;3.00;;;;;29.04;50.85;100439.38;5008697;28;45983;-83
2023/07/12 06:19:34;;;;;;;;;3.00;3.00;;;;;28.01;52.18;100441.41;5004871;28;45413;-87
2023/07/12 06:21:59;;;;;;;;;3.67;3.00;;;;;27.53;53.17;100463.06;5011562;28;45956;-86
2023/07/12 06:24:25;;;;;;;;;3.00;3.00;;;;;28.15;52.97;100463.16;5018017;28;45830;-88
2023/07/12 06:26:51;;;;;;;;;3.00;3.00;;;;;29.83;50.28;100466.00;5017695;28;45450;-88
2023/07/12 06:29:17;;;;;;;;;3.67;3.00;;;;;30.91;46.65;100453.91;5016153;28;45326;-88
2023/07/12 06:31:45;;;;;;;;;2.00;2.00;;;;;30.67;48.06;100445.34;5017981;28;45387;-87
2023/07/12 06:34:11;;;;;;;;;5.00;3.00;;;;;30.20;47.84;100456.88;5033405;28;45269;-85
2023/07/12 06:36:36;;;;;;;;;2.00;2.00;;;;;29.58;48.14;100456.44;5033005;28;45510;-84
2023/07/12 06:39:03;;;;;;;;;3.00;3.00;;;;;28.74;49.30;100461.41;5018342;28;45477;-87
2023/07/12 06:41:28;;;;;;;;;4.00;4.00;;;;;28.09;51.45;100463.41;5016796;28;45535;-85
2023/07/12 06:43:54;;;;;;;;;7.00;6.00;;;;;28.05;51.09;100469.88;5017761;28;45483;-89
2023/07/12 06:46:20;;;;;;;;;4.00;4.00;;;;;28.16;51.41;100497.13;5016836;28;45465;-85
2023/07/12 06:48:46;;;;;;;;;2.33;2.00;;;;;28.11;52.09;100502.72;5015409;28;45509;-86
2023/07/12 06:51:11;;;;;;;;;4.00;4.00;;;;;27.98;52.23;100500.63;5017162;28;45375;-85
2023/07/12 06:53:37;;;;;;;;;3.00;3.00;;;;;28.03;51.98;100477.13;5017926;28;45554;-84
2023/07/12 06:56:03;;;;;;;;;3.00;3.00;;;;;28.50;51.13;100488.47;5017692;28;45452;-81
2023/07/12 06:58:28;;;;;;;;;2.00;2.00;;;;;28.57;50.39;100475.63;5017308;28;45381;-83
2023/07/12 07:00:54;;;;;;;;;3.00;2.00;;;;;28.48;51.14;100495.69;5016004;28;45290;-84
2023/07/12 07:03:19;;;;;;;;;8.00;8.00;;;;;28.34;50.91;100499.00;5017500;28;45462;-84
2023/07/12 07:05:47;;;;;;;;;2.00;2.00;;;;;27.90;51.70;100517.06;5016478;28;45355;-82
2023/07/12 07:08:15;;;;;;;;;3.00;3.00;;;;;27.67;52.45;100520.66;5015423;28;45642;-85
2023/07/12 07:10:43;;;;;;;;;4.00;3.33;;;;;27.50;53.33;100514.19;5015555;28;45408;-85
2023/07/12 07:13:08;;;;;;;;;3.00;3.00;;;;;29.14;49.98;100500.72;5016769;28;45590;-84
2023/07/12 07:15:35;;;;;;;;;3.33;3.33;;;;;29.38;48.26;100470.88;5016873;28;45590;-86
2023/07/12 07:18:01;;;;;;;;;1.33;1.33;;;;;30.73;46.56;100480.03;5017008;28;45339;-85
2023/07/12 07:20:27;;;;;;;;;2.00;2.00;;;;;30.57;46.46;100460.28;5017149;28;45391;-85
2023/07/12 07:22:53;;;;;;;;;2.67;2.67;;;;;30.12;48.05;100454.59;5017498;28;45439;-83
2023/07/12 07:25:19;;;;;;;;;3.67;3.00;;;;;29.84;47.89;100495.53;5016614;28;45484;-81
2023/07/12 07:27:46;;;;;;;;;3.00;3.00;;;;;29.41;48.91;100483.34;5015242;28;45452;-83
2023/07/12 07:30:13;;;;;;;;;3.00;3.00;;;;;29.09;50.30;100481.25;5015017;28;45581;-83
2023/07/12 07:32:39;;;;;;;;;2.67;2.67;;;;;28.85;50.71;100487.75;5016081;28;45295;-84
2023/07/12 07:35:05;;;;;;;;;2.00;2.00;;;;;28.74;50.87;100481.09;5015799;28;45537;-85
2023/07/12 07:37:30;;;;;;;;;3.00;3.00;;;;;28.51;50.46;100474.09;5016598;28;45730;-84
2023/07/12 07:39:56;;;;;;;;;4.00;4.00;;;;;28.36;51.29;100494.44;5016888;28;45366;-84
2023/07/12 07:42:21;;;;;;;;;2.00;2.00;;;;;27.98;51.91;100450.47;5015415;28;45372;-83
2023/07/12 07:44:47;;;;;;;;;4.00;3.67;;;;;28.03;52.66;100487.84;5015923;28;45993;-84
2023/07/12 07:47:13;;;;;;;;;4.00;4.00;;;;;27.83;53.05;100470.75;5015270;28;45372;-84
2023/07/12 07:49:38;;;;;;;;;3.00;3.00;;;;;27.84;53.33;100493.13;5015661;28;45586;-84
2023/07/12 07:52:04;;;;;;;;;4.00;3.67;;;;;27.88;53.41;100517.13;5017680;28;45277;-83
2023/07/12 07:54:30;;;;;;;;;3.00;3.00;;;;;27.71;54.15;100525.84;5015968;28;45456;-80
2023/07/12 07:56:56;;;;;;;;;5.00;4.00;;;;;27.71;54.21;100533.03;5014739;28;45470;-84
2023/07/12 07:59:22;;;;;;;;;3.67;3.00;;;;;27.56;54.68;100502.34;5017687;28;45367;-84
2023/07/12 08:01:47;;;;;;;;;2.00;2.00;;;;;27.69;54.65;100533.06;5018542;28;45491;-83
2023/07/12 08:04:13;;;;;;;;;4.00;3.00;;;;;27.71;54.73;100533.03;5019409;28;46043;-82
2023/07/12 08:06:39;;;;;;;;;3.67;3.33;;;;;27.71;53.80;100525.84;5019987;28;45357;-83
2023/07/12 08:09:06;;;;;;;;;3.00;3.00;;;;;27.44;53.70;100494.81;5019543;28;45521;-84
2023/07/12 08:11:32;;;;;;;;;4.33;4.33;;;;;27.58;54.07;100493.28;5018667;28;45800;-84
2023/07/12 08:13:58;;;;;;;;;4.00;4.00;;;;;27.44;54.34;100489.44;5018970;28;45680;-83
2023/07/12 08:16:28;;;;;;;;;5.00;4.33;;;;;27.47;54.26;100494.66;5019343;28;45462;-83
2023/07/12 08:18:53;;;;;;;;;3.00;3.00;;;;;27.54;54.83;100478.25;5019616;28;45264;-83
2023/07/12 08:21:19;;;;;;;;;5.00;4.67;;;;;27.36;55.26;100471.84;5019604;28;45479;-82
2023/07/12 08:23:45;;;;;;;;;0.67;0.67;;;;;27.47;55.09;100492.84;5018984;28;45994;-80
2023/07/12 08:26:10;;;;;;;;;6.00;4.00;;;;;27.75;55.25;100505.13;5019311;28;45469;-82
2023/07/12 08:28:36;;;;;;;;;13.00;12.00;;;;;27.75;54.31;100497.97;5018856;28;45432;-83
2023/07/12 08:31:01;;;;;;;;;5.33;5.33;;;;;27.89;54.09;100526.03;5019183;28;45292;-83
2023/07/12 08:33:27;;;;;;;;;4.00;4.00;;;;;27.91;54.23;100527.75;5017763;28;45563;-82
2023/07/12 08:35:53;;;;;;;;;5.00;4.00;;;;;27.96;54.23;100528.41;5019179;28;45190;-80
2023/07/12 08:38:18;;;;;;;;;5.33;5.33;;;;;27.86;53.74;100515.41;5017969;28;45473;-80
2023/07/12 08:40:49;;;;;;;;;4.33;4.00;;;;;28.01;53.83;100538.06;5019354;28;45438;-82
2023/07/12 08:43:21;;;;;;;;;5.33;5.00;;;;;28.17;53.82;100544.53;5019039;28;45348;-83
2023/07/12 08:45:50;;;;;;;;;3.00;3.00;;;;;28.25;53.04;100525.41;5017648;28;45457;-84
2023/07/12 08:48:21;;;;;;;;;2.67;2.00;;;;;28.45;53.22;100548.69;5017792;28;45242;-83
2023/07/12 08:50:48;;;;;;;;;5.00;5.00;;;;;28.39;52.29;100520.28;5019401;28;45339;-84
2023/07/12 08:53:19;;;;;;;;;3.67;3.67;;;;;28.76;52.13;100554.47;5019585;28;45438;-80
2023/07/12 08:55:46;;;;;;;;;6.00;5.67;;;;;28.89;52.15;100535.09;5019327;28;45490;-80
2023/07/12 08:58:42;;;;;;;;;5.67;5.00;;;;;29.19;50.35;100526.53;5020888;28;45170;-83
2023/07/12 09:01:14;;;;;;;;;4.00;3.00;;;;;29.47;49.71;100528.78;5019271;28;45178;-85
2023/07/12 09:03:40;;;;;;;;;4.00;4.00;;;;;29.25;50.17;100513.69;5017442;28;47282;-85
2023/07/12 09:06:14;;;;;;;;;4.00;3.33;;;;;29.13;49.60;100482.88;5018593;28;45245;-84
2023/07/12 09:08:44;;;;;;;;;4.00;3.67;;;;;29.19;50.92;100531.91;5017814;28;45297;-84
2023/07/12 09:11:19;;;;;;;;;4.67;4.67;;;;;29.22;51.32;100512.97;5019043;28;45438;-85
2023/07/12 09:13:48;;;;;;;;;4.33;3.67;;;;;29.66;50.52;100526.91;5029582;28;45659;-82
2023/07/12 09:16:26;;;;;;;;;3.67;3.33;;;;;30.22;48.98;100519.63;5032968;28;45166;-83
2023/07/12 09:18:55;;;;;;;;;4.33;4.00;;;;;30.36;48.63;100507.25;5033533;28;45397;-84
2023/07/12 09:21:23;;;;;;;;;4.67;4.00;;;;;30.77;48.48;100514.94;5029481;28;45220;-85
2023/07/12 09:23:51;;;;;;;;;5.00;4.33;;;;;30.95;47.09;100500.47;5018773;28;45324;-82
2023/07/12 09:26:24;;;;;;;;;5.67;5.33;;;;;30.81;47.06;100506.59;5018816;28;45629;-84
2023/07/12 09:28:55;;;;;;;;;5.67;5.33;;;;;30.42;47.24;100490.75;5017228;28;45465;-83
2023/07/12 09:31:24;;;;;;;;;4.00;4.00;;;;;30.26;48.36;100456.53;5017048;28;45496;-85
2023/07/12 09:34:00;;;;;;;;;5.67;5.67;;;;;30.42;47.48;100480.88;5018062;28;45435;-83
2023/07/12 09:36:26;;;;;;;;;17.00;16.00;;;;;30.47;46.99;100494.94;5017911;28;45559;-83
2023/07/12 09:38:52;;;;;;;;;4.67;4.00;;;;;30.80;45.93;100464.41;5018229;28;45668;-81
2023/07/12 09:41:22;;;;;;;;;5.33;4.67;;;;;31.59;46.27;100495.06;5017659;28;45597;-79
2023/07/12 09:44:00;;;;;;;;;6.00;6.00;;;;;31.88;45.22;100496.91;5020315;28;46064;-81
2023/07/12 09:46:37;;;;;;;;;5.00;4.67;;;;;31.88;44.49;100480.72;5017816;28;45343;-80
2023/07/12 09:49:20;;;;;;;;;6.00;6.00;;;;;31.77;44.73;100490.41;5016153;28;45342;-80
2023/07/12 09:51:53;;;;;;;;;6.00;5.00;;;;;31.66;44.87;100480.25;5017901;28;45493;-80
2023/07/12 09:54:27;;;;;;;;;5.00;5.00;;;;;31.60;45.92;100492.28;5017260;28;46028;-83
2023/07/12 09:57:29;;;;;;;;;5.00;5.00;;;;;31.56;45.58;100488.03;5017140;28;45240;-83
2023/07/12 10:00:00;;;;;;;;;5.00;5.00;;;;;31.62;45.28;100494.91;5017386;28;45438;-83
2023/07/12 10:02:44;;;;;;;;;5.00;4.00;;;;;31.43;45.55;100498.63;5017318;28;45349;-82
2023/07/12 10:05:18;;;;;;;;;5.00;5.00;;;;;31.04;45.94;100469.44;5017007;28;45359;-83
2023/07/12 10:07:58;;;;;;;;;3.67;3.67;;;;;30.57;45.92;100489.94;5016027;28;45492;-83
2023/07/12 10:10:43;;;;;;;;;5.00;5.00;;;;;29.95;47.09;100476.13;5015342;28;45441;-84
2023/07/12 10:13:27;;;;;;;;;6.67;5.67;;;;;29.65;47.96;100481.25;5018193;28;45374;-83
2023/07/12 10:15:53;;;;;;;;;8.00;7.33;;;;;29.41;48.29;100489.59;5017901;28;45525;-83
2023/07/12 10:18:26;;;;;;;;;9.00;9.00;;;;;29.21;49.20;100481.59;5016499;28;45851;-80
2023/07/12 10:20:53;;;;;;;;;8.67;7.00;;;;;28.76;50.13;100456.81;5018172;28;45532;-83
2023/07/12 10:23:23;;;;;;;;;7.33;7.00;;;;;28.68;50.56;100497.50;5017268;28;45811;-79
2023/07/12 10:25:57;;;;;;;;;7.00;7.00;;;;;28.32;51.78;100482.06;5016948;28;45952;-79
2023/07/12 10:28:46;;;;;;;;;6.00;6.00;;;;;28.13;51.07;100486.50;5017670;28;45243;-84
2023/07/12 10:31:36;;;;;;;;;7.00;6.00;;;;;28.11;52.22;100517.94;5016261;28;45341;-83
2023/07/12 10:34:27;;;;;;;;;6.00;6.00;;;;;28.19;52.04;100513.09;5017008;28;45549;-83
2023/07/12 10:37:02;;;;;;;;;5.00;5.00;;;;;27.96;52.97;100517.66;5008724;28;45627;-83
2023/07/12 10:39:28;;;;;;;;;6.67;6.00;;;;;27.82;52.94;100493.19;5015631;28;45228;-84
2023/07/12 10:42:03;;;;;;;;;5.67;5.67;;;;;27.92;52.97;100502.63;5017112;28;45400;-84
2023/07/12 10:44:49;;;;;;;;;7.00;6.00;;;;;27.87;52.89;100469.72;5017386;28;45300;-84
2023/07/12 10:47:18;;;;;;;;;10.33;10.33;;;;;28.02;53.39;100502.25;5027645;28;46744;-83
2023/07/12 10:49:56;;;;;;;;;10.00;9.33;;;;;28.16;53.38;100526.69;5016800;28;45346;-82
2023/07/12 10:52:52;;;;;;;;;6.00;6.00;;;;;28.24;53.13;100513.78;5016749;28;45461;-81
2023/07/12 10:55:41;;;;;;;;;7.33;7.00;;;;;28.17;53.13;100512.28;5017520;28;45478;-83
2023/07/12 10:58:28;;;;;;;;;8.33;6.00;;;;;28.25;53.33;100494.06;5016660;28;46089;-83
2023/07/12 11:00:59;;;;;;;;;7.00;7.00;;;;;28.47;53.24;100495.75;5016800;28;45257;-83
2023/07/12 11:03:40;;;;;;;;;8.33;6.33;;;;;28.69;51.80;100498.38;5016958;28;45387;-83
2023/07/12 11:06:24;;;;;;;;;9.33;9.00;;;;;28.80;51.91;100495.19;5017287;28;45316;-83
2023/07/12 11:08:58;;;;;;;;;7.00;6.00;;;;;28.93;51.76;100507.13;5016499;28;45506;-82
2023/07/12 11:11:30;;;;;;;;;5.00;5.00;;;;;28.90;50.38;100504.56;5016102;28;45432;-82
2023/07/12 11:14:21;;;;;;;;;7.00;6.33;;;;;28.96;50.77;100501.59;5016623;28;45319;-82
2023/07/12 11:17:04;;;;;;;;;5.00;5.00;;;;;29.20;50.79;100502.25;5016922;28;45256;-84
2023/07/12 11:19:35;;;;;;;;;6.00;4.67;;;;;29.53;49.66;100510.50;5016531;28;45354;-84
2023/07/12 11:22:10;;;;;;;;;6.33;5.33;;;;;29.64;49.05;100514.47;5017237;28;45355;-84
2023/07/12 11:24:49;;;;;;;;;3.67;3.67;;;;;29.81;48.38;100511.84;5017908;28;45351;-81
2023/07/12 11:27:33;;;;;;;;;8.33;7.67;;;;;29.68;48.78;100508.84;5017141;28;45559;-83
2023/07/12 11:30:12;;;;;;;;;7.33;6.00;;;;;29.67;49.00;100499.06;5016895;28;45370;-84
2023/07/12 11:32:39;;;;;;;;;4.33;4.00;;;;;29.79;48.09;100478.75;5016205;28;45453;-84